Time;durP1;ratioP1;P1;durP2;ratioP2;P2;SDS_P1;SDS_P2;PMS_P1;PMS_P2;Temp;Humidity;BMP_temperature;BMP_pressure;BME280_temperature;BME280_humidity;BME280_pressure;Samples;Min_cycle;Max_cycle;Signal;HPM_P1;HPM_P2
2023/08/25 00:00:22;;;;;;;54.57;4.43;;;;;;;26.61;57.89;98856.31;7309756;19;129053;-37
2023/08/25 00:02:47;;;;;;;57.83;4.30;;;;;;;26.68;57.99;98873.03;7308100;19;129087;-37
2023/08/25 00:05:13;;;;;;;53.70;4.27;;;;;;;26.68;57.08;98859.03;7309342;19;129779;-37
2023/08/25 00:07:38;;;;;;;54.60;4.00;;;;;;;26.69;57.42;98853.56;7305434;19;132454;-37
2023/08/25 00:10:05;;;;;;;49.33;3.97;;;;;;;26.69;57.53;98848.28;7309132;19;129405;-36
2023/08/25 00:12:31;;;;;;;64.53;4.65;;;;;;;26.67;57.38;98855.59;7308799;19;129131;-37
2023/08/25 00:14:56;;;;;;;60.53;4.40;;;;;;;26.68;56.92;98865.13;7310877;19;129527;-35
2023/08/25 00:17:21;;;;;;;85.00;5.63;;;;;;;26.67;57.30;98858.25;7314069;19;129405;-38
2023/08/25 00:19:47;;;;;;;44.23;4.10;;;;;;;26.68;57.78;98870.41;7315409;19;128886;-35
2023/08/25 00:22:12;;;;;;;50.03;4.13;;;;;;;26.70;57.20;98870.22;7314333;19;129708;-37
2023/08/25 00:24:38;;;;;;;61.77;4.53;;;;;;;26.69;57.37;98879.16;7315159;19;129062;-38
2023/08/25 00:27:04;;;;;;;56.93;4.43;;;;;;;26.70;57.96;98886.03;7314274;19;130894;-38
2023/08/25 00:29:30;;;;;;;62.00;4.57;;;;;;;26.71;57.37;98880.56;7311757;19;128813;-37
2023/08/25 00:31:55;;;;;;;73.30;4.87;;;;;;;26.62;57.33;98857.97;7315077;19;129585;-41
2023/08/25 00:34:20;;;;;;;31.10;3.00;;;;;;;26.71;57.43;98872.66;7315610;19;129158;-35
2023/08/25 00:36:46;;;;;;;89.13;6.37;;;;;;;26.71;56.98;98862.13;7313379;19;129429;-38
2023/08/25 00:39:12;;;;;;;48.97;4.03;;;;;;;26.72;57.17;98855.84;7312235;19;129203;-37
2023/08/25 00:41:38;;;;;;;40.50;3.40;;;;;;;26.71;57.23;98859.47;7314725;19;129123;-38
2023/08/25 00:44:03;;;;;;;37.03;3.13;;;;;;;26.72;57.62;98858.50;7313973;19;130254;-37
2023/08/25 00:46:30;;;;;;;42.87;4.03;;;;;;;26.73;57.14;98854.84;7314585;19;130237;-35
2023/08/25 00:48:56;;;;;;;;;;;;;;;26.75;59.52;98852.81;7313088;19;128899;-36
2023/08/25 00:51:21;;;;;;;54.13;4.35;;;;;;;26.73;57.27;98848.72;7315113;19;129425;-38
2023/08/25 00:53:47;;;;;;;59.67;4.47;;;;;;;26.73;57.93;98854.84;7314494;19;129695;-37
2023/08/25 00:56:13;;;;;;;45.33;3.43;;;;;;;26.62;57.57;98834.22;7312980;19;132861;-39
2023/08/25 00:58:40;;;;;;;53.55;4.10;;;;;;;26.72;57.19;98847.13;7312489;19;129218;-37
2023/08/25 01:01:05;;;;;;;63.67;4.70;;;;;;;26.71;57.57;98843.66;7313824;19;129138;-36
2023/08/25 01:03:31;;;;;;;54.47;4.40;;;;;;;26.72;57.50;98862.94;7312262;19;130564;-37
2023/08/25 01:05:57;;;;;;;46.87;4.07;;;;;;;26.74;57.39;98853.81;7315072;19;129463;-37
2023/08/25 01:08:24;;;;;;;52.70;4.03;;;;;;;26.70;57.90;98857.84;7313657;19;128938;-39
2023/08/25 01:11:02;;;;;;;75.30;4.82;;;;;;;26.71;59.14;98850.75;7313611;19;129490;-34
2023/08/25 01:14:03;;;;;;;67.82;4.95;;;;;;;26.72;58.94;98847.94;7313187;19;131090;-38
2023/08/25 01:16:35;;;;;;;52.72;3.88;;;;;;;26.59;58.63;98825.88;7313752;19;130268;-35
2023/08/25 01:19:05;;;;;;;71.50;5.07;;;;;;;26.71;58.19;98859.47;7311231;19;128912;-37
2023/08/25 01:21:34;;;;;;;33.63;3.42;;;;;;;26.70;58.51;98855.22;7312366;19;128979;-34
2023/08/25 01:24:19;;;;;;;75.65;5.38;;;;;;;26.72;59.80;98857.66;7312627;19;129869;-34
2023/08/25 01:26:45;;;;;;;75.32;5.63;;;;;;;26.73;57.35;98851.38;7310169;19;129431;-37
2023/08/25 01:29:10;;;;;;;29.83;3.13;;;;;;;26.70;57.60;98849.94;7310495;19;129511;-36
2023/08/25 01:31:36;;;;;;;55.70;4.20;;;;;;;26.72;57.10;98863.75;7312555;19;129004;-37
2023/08/25 01:34:01;;;;;;;32.77;3.30;;;;;;;26.74;58.05;98866.22;7311115;19;129366;-36
2023/08/25 01:36:39;;;;;;;76.53;5.40;;;;;;;26.75;59.01;98868.66;7310245;19;130342;-36
2023/08/25 01:39:14;;;;;;;55.25;4.05;;;;;;;26.68;58.76;98865.13;7310804;19;129402;-36
2023/08/25 01:41:49;;;;;;;53.00;4.40;;;;;;;26.72;59.04;98871.69;7312751;19;129674;-35
2023/08/25 01:44:18;;;;;;;49.88;3.72;;;;;;;26.70;58.07;98876.31;7311711;19;130166;-38
2023/08/25 01:46:48;;;;;;;92.68;6.22;;;;;;;26.72;57.41;98869.03;7311529;19;129511;-37
2023/08/25 01:49:16;;;;;;;49.35;3.78;;;;;;;26.71;58.38;98867.38;7309806;19;129345;-40
2023/08/25 01:51:42;;;;;;;52.35;4.10;;;;;;;26.73;57.43;98870.66;7312206;19;129397;-36
2023/08/25 01:54:08;;;;;;;67.03;4.80;;;;;;;26.72;57.51;98871.69;7311209;19;130013;-36
2023/08/25 01:56:33;;;;;;;54.37;4.07;;;;;;;26.64;57.57;98850.66;7312566;19;130419;-36
2023/08/25 01:58:58;;;;;;;64.17;4.57;;;;;;;26.75;57.75;98863.38;7310543;19;128894;-35
2023/08/25 02:01:25;;;;;;;98.40;6.43;;;;;;;26.66;57.28;98853.94;7310676;19;128861;-39
2023/08/25 02:03:52;;;;;;;64.80;4.60;;;;;;;26.73;57.39;98865.38;7311821;19;130283;-36
2023/08/25 02:06:18;;;;;;;66.55;4.97;;;;;;;26.73;57.61;98857.47;7310923;19;131030;-37
2023/08/25 02:08:44;;;;;;;38.67;3.25;;;;;;;26.66;57.91;98847.84;7309969;19;128986;-38
2023/08/25 02:11:10;;;;;;;64.10;4.57;;;;;;;26.64;57.56;98844.59;7311549;19;128956;-34
2023/08/25 02:13:36;;;;;;;35.28;3.17;;;;;;;26.74;57.86;98861.72;7310802;19;128992;-38
2023/08/25 02:16:01;;;;;;;74.77;5.20;;;;;;;26.73;58.25;98865.38;7310198;19;129404;-37
2023/08/25 02:18:27;;;;;;;58.27;4.23;;;;;;;26.73;58.11;98859.28;7309176;19;129340;-35
2023/08/25 02:20:55;;;;;;;47.70;3.63;;;;;;;26.73;58.36;98859.28;7311341;19;129722;-36
2023/08/25 02:23:21;;;;;;;51.95;4.00;;;;;;;26.74;57.57;98859.09;7308279;19;130543;-37
2023/08/25 02:25:46;;;;;;;60.53;4.17;;;;;;;26.73;57.98;98865.38;7310628;19;130805;-34
2023/08/25 02:28:12;;;;;;;45.93;3.73;;;;;;;26.72;58.06;98858.50;7308961;19;128970;-38
2023/08/25 02:30:37;;;;;;;62.90;4.63;;;;;;;26.74;58.11;98860.94;7310360;19;129891;-37
2023/08/25 02:33:02;;;;;;;51.57;3.73;;;;;;;26.74;57.97;98858.28;7310242;19;129459;-38
2023/08/25 02:35:28;;;;;;;56.50;3.97;;;;;;;26.72;58.34;98853.22;7310733;19;129525;-38
2023/08/25 02:38:00;;;;;;;64.27;4.43;;;;;;;26.73;58.03;98854.00;7307297;19;128936;-41
2023/08/25 02:40:26;;;;;;;48.20;3.88;;;;;;;26.75;57.54;98850.19;7309835;19;128922;-35
2023/08/25 02:42:56;;;;;;;53.92;4.15;;;;;;;26.71;58.82;98843.66;7310433;19;129382;-37
2023/08/25 02:45:25;;;;;;;46.60;3.90;;;;;;;26.74;58.94;98850.38;7311347;19;131063;-36
2023/08/25 02:47:51;;;;;;;54.28;4.05;;;;;;;26.74;57.97;98851.19;7310203;19;129040;-38
2023/08/25 02:50:17;;;;;;;57.65;4.22;;;;;;;26.73;58.18;98852.19;7311173;19;129920;-37
2023/08/25 02:52:42;;;;;;;52.73;3.90;;;;;;;26.64;57.77;98829.56;7309154;19;132326;-39
2023/08/25 02:55:08;;;;;;;52.70;4.07;;;;;;;26.73;58.47;98846.91;7308855;19;132994;-36
2023/08/25 02:57:33;;;;;;;50.43;3.87;;;;;;;26.72;58.25;98842.66;7309175;19;128936;-38
2023/08/25 02:59:58;;;;;;;58.13;4.20;;;;;;;26.74;58.36;98837.19;7311202;19;129705;-38
2023/08/25 03:02:24;;;;;;;58.03;4.40;;;;;;;26.74;57.74;98835.34;7310834;19;130575;-38
2023/08/25 03:04:49;;;;;;;53.23;4.17;;;;;;;26.73;57.44;98825.00;7310608;19;130291;-31
2023/08/25 03:07:14;;;;;;;63.57;4.47;;;;;;;26.74;57.62;98832.72;7309122;19;129215;-37
2023/08/25 03:09:40;;;;;;;57.87;4.03;;;;;;;26.74;58.26;98830.06;7307605;19;129027;-38
2023/08/25 03:12:05;;;;;;;78.27;5.30;;;;;;;26.75;57.89;98809.81;7309567;19;130214;-39
2023/08/25 03:14:31;;;;;;;53.07;3.90;;;;;;;26.74;57.63;98824.81;7308720;19;129793;-40
2023/08/25 03:16:56;;;;;;;63.00;4.60;;;;;;;26.75;58.17;98826.44;7309457;19;129031;-38
2023/08/25 03:19:21;;;;;;;40.43;3.23;;;;;;;26.74;57.65;98822.16;7308201;19;128863;-35
2023/08/25 03:21:47;;;;;;;53.40;4.03;;;;;;;26.73;58.76;98823.19;7308789;19;130803;-38
2023/08/25 03:24:12;;;;;;;64.37;4.60;;;;;;;26.75;57.53;98826.44;7309743;19;131058;-35
2023/08/25 03:26:38;;;;;;;56.20;4.57;;;;;;;26.65;58.29;98804.88;7310175;19;128957;-37
2023/08/25 03:29:03;;;;;;;53.83;4.23;;;;;;;26.74;57.40;98811.63;7308470;19;129726;-36
2023/08/25 03:31:28;;;;;;;57.60;4.27;;;;;;;26.68;58.04;98798.38;7310149;19;130138;-37
2023/08/25 03:33:54;;;;;;;43.60;3.47;;;;;;;26.74;58.31;98814.25;7308500;19;130452;-36
2023/08/25 03:36:19;;;;;;;79.10;5.30;;;;;;;26.75;58.54;98815.06;7308955;19;129274;-41
2023/08/25 03:38:44;;;;;;;91.00;6.03;;;;;;;26.76;58.24;98806.97;7308068;19;129805;-37
2023/08/25 03:41:10;;;;;;;60.53;4.40;;;;;;;26.77;57.83;98818.34;7309376;19;129108;-37
2023/08/25 03:43:36;;;;;;;52.37;3.97;;;;;;;26.64;57.83;98792.63;7306577;19;130443;-36
2023/08/25 03:46:03;;;;;;;62.75;4.38;;;;;;;26.76;58.08;98796.41;7308654;19;129395;-36
2023/08/25 03:48:28;;;;;;;46.38;3.70;;;;;;;26.75;58.24;98813.25;7307327;19;130066;-38
2023/08/25 03:50:54;;;;;;;63.33;4.27;;;;;;;26.74;58.35;98808.97;7308692;19;129198;-39
2023/08/25 03:53:19;;;;;;;64.07;4.70;;;;;;;26.74;57.69;98808.97;7308783;19;130248;-38
2023/08/25 03:55:44;;;;;;;52.90;4.23;;;;;;;26.74;58.13;98803.69;7309695;19;128803;-37
2023/08/25 03:58:10;;;;;;;61.87;4.93;;;;;;;26.74;58.02;98814.25;7307115;19;129214;-37
2023/08/25 04:00:36;;;;;;;35.72;3.28;;;;;;;26.73;58.00;98804.72;7308533;19;131354;-36
2023/08/25 04:03:03;;;;;;;56.37;4.00;;;;;;;26.75;57.98;98808.00;7304631;19;130480;-37
2023/08/25 04:05:29;;;;;;;66.15;4.53;;;;;;;26.73;58.17;98812.63;7308065;19;128990;-34
2023/08/25 04:07:55;;;;;;;43.03;3.50;;;;;;;26.71;57.62;98809.38;7306499;19;129005;-37
2023/08/25 04:10:21;;;;;;;55.72;4.10;;;;;;;26.73;57.96;98817.91;7309085;19;131906;-35
2023/08/25 04:12:47;;;;;;;39.10;3.40;;;;;;;26.74;57.95;98822.16;7306281;19;129621;-35
2023/08/25 04:15:13;;;;;;;64.60;4.37;;;;;;;26.73;57.73;98817.91;7306367;19;129741;-40
2023/08/25 04:17:38;;;;;;;57.25;4.28;;;;;;;26.73;58.19;98811.81;7305197;19;129199;-32
2023/08/25 04:20:04;;;;;;;60.67;4.17;;;;;;;26.74;58.19;98819.53;7307395;19;129395;-34
2023/08/25 04:22:29;;;;;;;99.70;6.73;;;;;;;26.77;58.18;98813.91;7304001;19;129775;-34
2023/08/25 04:24:55;;;;;;;72.70;4.77;;;;;;;26.76;57.88;98811.41;7305945;19;129447;-35
2023/08/25 04:27:20;;;;;;;87.10;5.67;;;;;;;26.74;58.00;98811.63;7306692;19;129281;-35
2023/08/25 04:29:46;;;;;;;53.10;3.93;;;;;;;26.76;58.50;98809.59;7305087;19;130260;-36
2023/08/25 04:32:11;;;;;;;51.27;3.87;;;;;;;26.76;57.96;98812.25;7306694;19;130850;-39
2023/08/25 04:34:37;;;;;;;69.93;4.97;;;;;;;26.68;58.18;98798.38;7301351;19;130460;-37
2023/08/25 04:37:03;;;;;;;55.10;4.33;;;;;;;26.76;57.95;98806.16;7302584;19;130160;-35
2023/08/25 04:39:28;;;;;;;53.65;4.05;;;;;;;26.74;57.90;98808.97;7297551;19;131668;-36
2023/08/25 04:41:54;;;;;;;95.77;6.30;;;;;;;26.76;58.03;98814.06;7300298;19;130778;-38
2023/08/25 04:44:20;;;;;;;44.33;3.60;;;;;;;26.74;58.26;98803.69;7302611;19;129916;-39
2023/08/25 04:46:45;;;;;;;87.73;5.97;;;;;;;26.73;58.37;98807.34;7308114;19;129071;-35
2023/08/25 04:49:11;;;;;;;79.10;5.33;;;;;;;26.75;58.58;98810.63;7301542;19;129863;-35
2023/08/25 04:51:36;;;;;;;33.60;3.10;;;;;;;26.75;58.25;98810.63;7302061;19;130453;-35
2023/08/25 04:54:02;;;;;;;49.47;3.70;;;;;;;26.75;58.20;98797.44;7306202;19;129177;-38
2023/08/25 04:56:28;;;;;;;90.18;5.95;;;;;;;26.73;57.97;98804.72;7300588;19;131360;-37
2023/08/25 04:58:53;;;;;;;62.97;4.30;;;;;;;26.75;58.04;98800.06;7305207;19;131159;-39
2023/08/25 05:01:19;;;;;;;58.57;4.40;;;;;;;26.78;58.15;98804.13;7305880;19;129244;-37
2023/08/25 05:03:44;;;;;;;52.10;4.07;;;;;;;26.67;57.41;98787.03;7312522;19;129325;-39
2023/08/25 05:06:10;;;;;;;64.57;4.87;;;;;;;26.78;57.13;98799.69;7312917;19;129088;-34
2023/08/25 05:08:36;;;;;;;97.85;6.32;;;;;;;26.77;57.36;98797.25;7310238;19;130013;-35
2023/08/25 05:11:03;;;;;;;103.43;6.90;;;;;;;26.74;57.00;98798.44;7311057;19;130902;-38
2023/08/25 05:13:28;;;;;;;;;;;;;;;26.76;58.96;98796.41;7311395;19;129560;-40
2023/08/25 05:15:53;;;;;;;90.75;6.10;;;;;;;26.75;56.28;98794.81;7310484;19;129545;-35
2023/08/25 05:18:19;;;;;;;90.47;6.40;;;;;;;26.78;56.72;98794.41;7307688;19;130158;-36
2023/08/25 05:20:45;;;;;;;62.10;4.80;;;;;;;26.76;56.83;98791.16;7310352;19;132007;-39
2023/08/25 05:23:10;;;;;;;56.77;4.27;;;;;;;26.76;57.27;98791.16;7309259;19;128674;-37
2023/08/25 05:25:36;;;;;;;47.07;4.60;;;;;;;26.77;57.23;98798.06;7311101;19;129553;-34
2023/08/25 05:28:02;;;;;;;68.15;4.93;;;;;;;26.76;56.62;98801.69;7310876;19;131405;-36
2023/08/25 05:30:27;;;;;;;53.87;4.77;;;;;;;26.79;56.62;98795.25;7310725;19;132176;-37
2023/08/25 05:32:53;;;;;;;54.67;4.53;;;;;;;26.67;56.34;98792.31;7312742;19;129410;-37
2023/08/25 05:35:18;;;;;;;67.90;5.17;;;;;;;26.74;56.94;98792.38;7312870;19;129738;-34
2023/08/25 05:37:43;;;;;;;84.13;5.93;;;;;;;26.71;56.69;98793.53;7307369;19;129571;-36
2023/08/25 05:40:10;;;;;;;77.43;6.10;;;;;;;26.72;56.55;98792.56;7304625;19;129383;-36
2023/08/25 05:42:37;;;;;;;88.85;6.05;;;;;;;26.72;56.34;98781.19;7307973;19;129112;-37
2023/08/25 05:45:04;;;;;;;41.33;4.07;;;;;;;26.71;56.96;98783.00;7312453;19;129721;-35
2023/08/25 05:47:30;;;;;;;63.22;5.03;;;;;;;26.68;56.32;98772.84;7311639;19;129601;-34
2023/08/25 05:49:55;;;;;;;62.53;4.83;;;;;;;26.68;56.34;98783.38;7310626;19;130246;-35
2023/08/25 05:52:21;;;;;;;58.40;4.77;;;;;;;26.67;56.34;98775.66;7312834;19;129214;-33
2023/08/25 05:54:46;;;;;;;84.07;5.87;;;;;;;26.68;57.17;98770.19;7311378;19;129579;-36
2023/08/25 05:57:12;;;;;;;68.97;5.37;;;;;;;26.69;56.89;98779.72;7303334;19;131020;-37
2023/08/25 05:59:37;;;;;;;70.90;4.97;;;;;;;26.69;56.65;98785.00;7306664;19;131568;-37
2023/08/25 06:02:02;;;;;;;49.37;4.47;;;;;;;26.66;56.76;98774.03;7311408;19;129670;-34
2023/08/25 06:04:28;;;;;;;74.57;5.40;;;;;;;26.56;56.75;98769.06;7312032;19;129186;-36
2023/08/25 06:06:54;;;;;;;49.10;4.55;;;;;;;26.65;57.12;98782.91;7308681;19;129235;-38
2023/08/25 06:09:20;;;;;;;74.17;5.93;;;;;;;26.65;56.79;98783.78;7308527;19;129899;-37
2023/08/25 06:11:45;;;;;;;55.53;4.67;;;;;;;26.52;57.41;98767.81;7310940;19;130912;-36
2023/08/25 06:14:11;;;;;;;54.60;4.90;;;;;;;26.62;57.22;98781.50;7311660;19;129172;-38
2023/08/25 06:16:38;;;;;;;68.80;5.60;;;;;;;26.61;57.02;98782.47;7310999;19;130218;-38
2023/08/25 06:19:03;;;;;;;;;;;;;;;26.68;58.25;98782.56;7309771;19;130713;-37
2023/08/25 06:21:29;;;;;;;29.75;3.30;;;;;;;26.67;57.00;98787.03;7310826;19;128820;-38
2023/08/25 06:23:54;;;;;;;67.43;5.13;;;;;;;26.66;56.94;98780.13;7309099;19;129779;-36
2023/08/25 06:26:20;;;;;;;56.73;4.53;;;;;;;26.61;57.24;98787.75;7310329;19;129135;-37
2023/08/25 06:28:45;;;;;;;59.03;4.60;;;;;;;26.60;57.04;98780.88;7308557;19;130294;-35
2023/08/25 06:31:10;;;;;;;63.17;4.73;;;;;;;26.60;57.03;98783.50;7308145;19;129400;-38
2023/08/25 06:33:38;;;;;;;62.77;4.80;;;;;;;26.59;57.24;98788.97;7308745;19;129760;-34
2023/08/25 06:36:05;;;;;;;60.88;4.65;;;;;;;26.60;56.75;98790.59;7310874;19;130927;-36
2023/08/25 06:38:31;;;;;;;72.57;5.22;;;;;;;26.58;56.75;98792.59;7308097;19;130289;-38
2023/08/25 06:40:56;;;;;;;53.43;4.33;;;;;;;26.61;57.18;98794.88;7310886;19;128985;-37
2023/08/25 06:43:21;;;;;;;56.43;4.53;;;;;;;26.59;57.37;98788.97;7307528;19;129454;-36
2023/08/25 06:45:47;;;;;;;56.20;4.37;;;;;;;26.59;57.61;98800.31;7310888;19;129458;-38
2023/08/25 06:48:13;;;;;;;63.23;4.80;;;;;;;26.61;57.24;98793.03;7308942;19;131429;-34
2023/08/25 06:50:38;;;;;;;49.60;4.37;;;;;;;26.61;57.39;98794.88;7311244;19;129887;-34
2023/08/25 06:53:06;;;;;;;63.77;4.73;;;;;;;26.58;57.35;98790.78;7309076;19;129474;-35
2023/08/25 06:55:36;;;;;;;44.90;4.05;;;;;;;26.57;57.79;98796.25;7311671;19;130745;-35
2023/08/25 06:58:02;;;;;;;53.78;4.25;;;;;;;26.57;57.38;98810.25;7306520;19;130193;-38
2023/08/25 07:00:27;;;;;;;31.33;3.30;;;;;;;26.57;57.84;98806.78;7310841;19;129474;-36
2023/08/25 07:02:53;;;;;;;68.33;5.30;;;;;;;26.57;57.53;98793.59;7308481;19;129714;-33
2023/08/25 07:05:18;;;;;;;61.00;4.77;;;;;;;26.57;57.80;98807.63;7309930;19;129207;-35
2023/08/25 07:07:44;;;;;;;65.77;5.07;;;;;;;26.60;57.54;98811.69;7307477;19;129619;-34
2023/08/25 07:10:12;;;;;;;54.73;4.27;;;;;;;26.59;57.45;98816.13;7309696;19;129023;-37
2023/08/25 07:12:39;;;;;;;47.17;4.22;;;;;;;26.58;57.48;98814.50;7310739;19;129404;-37
2023/08/25 07:15:08;;;;;;;63.72;4.80;;;;;;;26.58;57.22;98827.69;7309288;19;130341;-34
2023/08/25 07:17:34;;;;;;;62.70;4.68;;;;;;;26.61;57.46;98823.88;7308338;19;131031;-40
2023/08/25 07:19:59;;;;;;;30.80;2.93;;;;;;;26.60;58.04;98823.06;7308695;19;128949;-34
2023/08/25 07:22:25;;;;;;;51.73;4.30;;;;;;;26.53;57.58;98809.00;7309100;19;129462;-38
2023/08/25 07:24:53;;;;;;;61.10;4.70;;;;;;;26.60;58.07;98816.94;7305650;19;129422;-36
2023/08/25 07:27:21;;;;;;;44.15;3.97;;;;;;;26.61;57.63;98829.94;7308069;19;129530;-38
2023/08/25 07:29:47;;;;;;;62.92;4.57;;;;;;;26.59;57.67;98831.16;7304730;19;129154;-37
2023/08/25 07:32:12;;;;;;;62.00;4.43;;;;;;;26.58;57.88;98840.88;7308744;19;128996;-39
2023/08/25 07:34:38;;;;;;;70.57;4.70;;;;;;;26.59;58.08;98821.41;7308021;19;131788;-37
2023/08/25 07:37:03;;;;;;;50.03;4.23;;;;;;;26.58;58.35;98824.22;7309052;19;129794;-41
2023/08/25 07:39:29;;;;;;;47.13;3.60;;;;;;;26.59;57.83;98825.88;7306978;19;128942;-46
2023/08/25 07:41:55;;;;;;;67.60;4.93;;;;;;;26.59;58.11;98829.31;7309735;19;129527;-37
2023/08/25 07:44:20;;;;;;;55.43;4.57;;;;;;;26.55;57.55;98814.91;7306336;19;129957;-37
2023/08/25 07:46:45;;;;;;;90.47;6.40;;;;;;;26.56;58.42;98827.06;7307531;19;129919;-35
2023/08/25 07:49:11;;;;;;;60.87;5.00;;;;;;;26.59;58.37;98831.94;7304923;19;129016;-36
2023/08/25 07:51:37;;;;;;;55.27;4.30;;;;;;;26.49;58.11;98810.41;7308043;19;128861;-36
2023/08/25 07:54:02;;;;;;;62.23;4.73;;;;;;;26.52;58.39;98817.91;7307970;19;129165;-36
2023/08/25 07:56:28;;;;;;;64.20;4.83;;;;;;;26.61;58.21;98835.22;7306979;19;131484;-32
2023/08/25 07:58:53;;;;;;;71.43;5.03;;;;;;;26.61;58.13;98840.50;7306095;19;129647;-37
2023/08/25 08:01:19;;;;;;;53.57;4.37;;;;;;;26.60;58.33;98838.03;7308038;19;128959;-35
2023/08/25 08:03:45;;;;;;;39.27;3.73;;;;;;;26.62;58.05;98836.88;7306345;19;129167;-40
2023/08/25 08:06:11;;;;;;;63.37;4.57;;;;;;;26.59;57.92;98837.22;7308937;19;129624;-36
2023/08/25 08:08:36;;;;;;;52.63;4.27;;;;;;;26.60;58.12;98844.16;7305640;19;129601;-33
2023/08/25 08:11:01;;;;;;;45.67;4.07;;;;;;;26.61;58.31;98835.22;7307005;19;129583;-36
2023/08/25 08:13:27;;;;;;;58.60;4.43;;;;;;;26.60;58.14;98833.59;7307987;19;130138;-34
2023/08/25 08:15:52;;;;;;;65.33;4.77;;;;;;;26.59;58.61;98833.78;7308243;19;130653;-38
2023/08/25 08:18:18;;;;;;;67.20;5.20;;;;;;;26.58;58.67;98835.59;7302314;19;129434;-37
2023/08/25 08:20:44;;;;;;;62.87;5.00;;;;;;;26.62;57.68;98841.31;7308864;19;129473;-37
2023/08/25 08:23:09;;;;;;;46.23;4.03;;;;;;;26.63;58.24;98849.03;7305674;19;130780;-35
2023/08/25 08:25:36;;;;;;;55.13;4.53;;;;;;;26.63;57.97;98849.03;7307671;19;129643;-38
2023/08/25 08:28:02;;;;;;;59.53;4.47;;;;;;;26.61;57.71;98856.31;7305390;19;129273;-36
2023/08/25 08:30:27;;;;;;;55.70;4.00;;;;;;;26.60;58.16;98844.16;7306233;19;129287;-39
2023/08/25 08:32:53;;;;;;;69.40;5.40;;;;;;;26.53;58.69;98827.44;7307837;19;129184;-39
2023/08/25 08:35:18;;;;;;;66.87;4.83;;;;;;;26.61;58.42;98848.41;7305596;19;130545;-39
2023/08/25 08:37:44;;;;;;;52.40;4.23;;;;;;;26.64;58.10;98857.78;7311815;19;129312;-37
2023/08/25 08:40:10;;;;;;;54.17;4.27;;;;;;;26.63;58.85;98859.59;7313775;19;128820;-36
2023/08/25 08:42:37;;;;;;;59.40;4.38;;;;;;;26.62;58.35;98852.69;7313970;19;130685;-39
2023/08/25 08:45:07;;;;;;;59.78;4.40;;;;;;;26.51;58.55;98824.19;7315143;19;130386;-38
2023/08/25 08:47:34;;;;;;;54.58;4.55;;;;;;;26.58;58.22;98832.97;7311315;19;129071;-37
2023/08/25 08:50:00;;;;;;;52.42;4.07;;;;;;;26.62;58.79;98836.88;7313313;19;129560;-34
2023/08/25 08:52:28;;;;;;;72.03;5.00;;;;;;;26.61;59.10;98835.22;7313705;19;129520;-37
2023/08/25 08:54:53;;;;;;;55.42;4.50;;;;;;;26.63;58.23;98832.38;7313095;19;130386;-33
2023/08/25 08:57:19;;;;;;;60.83;4.37;;;;;;;26.52;57.99;98817.91;7309898;19;129191;-36
2023/08/25 08:59:44;;;;;;;35.13;3.30;;;;;;;26.62;58.03;98836.88;7310698;19;129535;-34
2023/08/25 09:02:13;;;;;;;68.30;5.00;;;;;;;26.62;58.65;98842.13;7312082;19;130417;-35
2023/08/25 09:04:40;;;;;;;50.95;4.10;;;;;;;26.64;58.64;98834.84;7311130;19;130493;-41
2023/08/25 09:07:07;;;;;;;40.53;3.72;;;;;;;26.63;58.53;98838.50;7313734;19;128988;-38
2023/08/25 09:09:33;;;;;;;54.28;4.22;;;;;;;26.64;58.51;98842.75;7310918;19;129196;-36
2023/08/25 09:11:58;;;;;;;75.07;5.17;;;;;;;26.62;58.28;98843.94;7310285;19;130531;-35
2023/08/25 09:14:28;;;;;;;61.33;4.70;;;;;;;26.64;59.49;98855.94;7309962;19;129498;-39
2023/08/25 09:17:00;;;;;;;45.42;4.25;;;;;;;26.62;59.33;98841.31;7311777;19;129599;-36
2023/08/25 09:19:30;;;;;;;22.77;2.72;;;;;;;26.64;58.95;98845.38;7311397;19;129127;-38
2023/08/25 09:21:56;;;;;;;43.45;3.72;;;;;;;26.64;58.52;98845.38;7312346;19;129777;-37
2023/08/25 09:24:22;;;;;;;58.37;4.47;;;;;;;26.64;58.33;98840.09;7310654;19;129419;-35
2023/08/25 09:26:49;;;;;;;80.43;5.90;;;;;;;26.63;58.54;98849.03;7305121;19;129861;-39
2023/08/25 09:29:15;;;;;;;55.78;4.45;;;;;;;26.65;58.27;98841.78;7307620;19;129314;-38
2023/08/25 09:31:42;;;;;;;52.30;4.25;;;;;;;26.64;57.88;98840.09;7312784;19;130562;-34
2023/08/25 09:34:08;;;;;;;;;;;;;;;26.60;60.02;98828.31;7313245;19;130456;-36
2023/08/25 09:36:34;;;;;;;64.68;4.80;;;;;;;26.67;58.50;98847.69;7310982;19;129485;-36
2023/08/25 09:39:00;;;;;;;53.47;4.47;;;;;;;26.65;58.19;98846.19;7309348;19;128997;-38
2023/08/25 09:41:30;;;;;;;62.03;4.35;;;;;;;26.66;57.80;98847.84;7313145;19;130682;-38
2023/08/25 09:43:56;;;;;;;72.45;4.97;;;;;;;26.64;58.28;98850.66;7309284;19;132045;-38
2023/08/25 09:46:29;;;;;;;55.42;4.18;;;;;;;26.63;59.83;98854.31;7312717;19;129604;-35
2023/08/25 09:49:06;;;;;;;53.42;3.90;;;;;;;26.64;59.61;98857.78;7305478;19;129865;-35
2023/08/25 09:51:41;;;;;;;28.07;3.03;;;;;;;26.65;59.42;98857.59;7311770;19;129960;-37
2023/08/25 09:54:07;;;;;;;59.85;4.60;;;;;;;26.64;58.01;98865.69;7310894;19;131826;-37
2023/08/25 09:56:34;;;;;;;70.03;5.07;;;;;;;26.64;58.36;98855.94;7311434;19;128956;-38
2023/08/25 09:59:02;;;;;;;49.15;4.00;;;;;;;26.66;58.59;98864.50;7310406;19;129440;-36
2023/08/25 10:01:27;;;;;;;67.13;4.63;;;;;;;26.66;57.85;98869.78;7312054;19;129250;-34
2023/08/25 10:03:53;;;;;;;57.80;4.33;;;;;;;26.65;58.63;98876.06;7309707;19;130022;-37
2023/08/25 10:06:21;;;;;;;58.05;4.22;;;;;;;26.61;58.39;98866.84;7310397;19;129618;-38
2023/08/25 10:08:47;;;;;;;61.15;4.50;;;;;;;26.67;58.42;98870.59;7309835;19;129391;-39
2023/08/25 10:11:14;;;;;;;51.93;4.17;;;;;;;26.66;58.85;98869.78;7311572;19;130677;-35
2023/08/25 10:13:42;;;;;;;70.25;4.70;;;;;;;26.66;58.24;98872.41;7310721;19;129691;-35
2023/08/25 10:16:11;;;;;;;55.42;4.15;;;;;;;26.65;58.99;98878.69;7312343;19;129615;-36
2023/08/25 10:18:43;;;;;;;46.70;3.83;;;;;;;26.65;59.10;98872.56;7309743;19;129662;-32
2023/08/25 10:21:09;;;;;;;57.75;4.18;;;;;;;26.57;58.00;98852.44;7311934;19;129278;-38
2023/08/25 10:23:37;;;;;;;87.47;5.75;;;;;;;26.69;58.53;98864.13;7309862;19;130088;-37
2023/08/25 10:26:04;;;;;;;51.33;3.85;;;;;;;26.68;58.41;98870.41;7312388;19;129283;-38
2023/08/25 10:28:30;;;;;;;67.22;4.38;;;;;;;26.69;58.17;98879.94;7307486;19;129941;-37
2023/08/25 10:30:56;;;;;;;51.30;3.90;;;;;;;26.61;58.40;98872.13;7309594;19;131075;-36
2023/08/25 10:33:22;;;;;;;56.93;4.23;;;;;;;26.69;58.26;98887.84;7310582;19;130504;-38
2023/08/25 10:35:48;;;;;;;52.65;3.88;;;;;;;26.70;58.32;98886.88;7310610;19;129123;-36
2023/08/25 10:38:20;;;;;;;72.50;5.20;;;;;;;26.69;59.02;98877.31;7307827;19;129488;-37
2023/08/25 10:40:56;;;;;;;44.92;3.45;;;;;;;26.70;59.53;98883.41;7310041;19;130198;-39
2023/08/25 10:43:25;;;;;;;72.27;4.90;;;;;;;26.69;58.95;98879.94;7309456;19;129143;-38
2023/08/25 10:45:51;;;;;;;57.47;4.28;;;;;;;26.72;57.89;98873.47;7311184;19;129498;-36
2023/08/25 10:48:19;;;;;;;47.15;3.70;;;;;;;26.69;58.05;98869.38;7308597;19;129860;-39
2023/08/25 10:50:45;;;;;;;57.42;4.13;;;;;;;26.61;57.68;98851.03;7310569;19;130157;-35
2023/08/25 10:53:52;;;;;;;54.30;4.27;;;;;;;26.61;60.20;98858.94;7310891;19;131674;-37
2023/08/25 10:56:18;;;;;;;49.00;3.67;;;;;;;26.71;58.26;98880.56;7311389;19;129454;-40
2023/08/25 10:58:59;;;;;;;56.97;4.10;;;;;;;26.70;59.57;98878.94;7308072;19;129948;-36
2023/08/25 11:01:37;;;;;;;47.88;3.78;;;;;;;26.71;59.93;98882.38;7307531;19;130240;-36
2023/08/25 11:04:05;;;;;;;66.25;4.78;;;;;;;26.72;58.27;98884.03;7307725;19;129795;-36
2023/08/25 11:06:43;;;;;;;42.58;3.50;;;;;;;26.71;59.45;98877.94;7309596;19;129546;-37
2023/08/25 11:09:30;;;;;;;57.92;3.97;;;;;;;26.72;58.12;98866.41;7307176;19;128866;-37
2023/08/25 11:11:57;;;;;;;55.20;3.80;;;;;;;26.71;58.74;98877.09;7308767;19;130198;-36
2023/08/25 11:14:30;;;;;;;52.13;3.95;;;;;;;26.66;59.19;98874.22;7309511;19;130137;-37
2023/08/25 11:17:01;;;;;;;64.00;4.60;;;;;;;26.72;59.38;98890.13;7309598;19;129537;-34